sensor_id;sensor_type;location;lat;lon;timestamp;P1;durP1;ratioP1;P2;durP2;ratioP2
74753;SDS011;63271;53.340;-6.260;2023-03-21T07:02:08;4.53;;;1.10;;
74753;SDS011;63271;53.340;-6.260;2023-03-21T07:04:34;4.32;;;0.88;;
74753;SDS011;63271;53.340;-6.260;2023-03-21T07:07:00;4.90;;;1.20;;
74753;SDS011;63271;53.340;-6.260;2023-03-21T07:09:27;2.35;;;0.60;;
74753;SDS011;63271;53.340;-6.260;2023-03-21T07:11:53;5.47;;;0.93;;
74753;SDS011;63271;53.340;-6.260;2023-03-21T07:14:19;4.55;;;1.00;;
74753;SDS011;63271;53.340;-6.260;2023-03-21T07:16:50;4.25;;;1.00;;
74753;SDS011;63271;53.340;-6.260;2023-03-21T07:19:15;4.43;;;0.77;;
74753;SDS011;63271;53.340;-6.260;2023-03-21T07:21:43;2.13;;;0.80;;
74753;SDS011;63271;53.340;-6.260;2023-03-21T07:24:08;7.00;;;1.50;;
74753;SDS011;63271;53.340;-6.260;2023-03-21T07:26:34;6.18;;;0.98;;
74753;SDS011;63271;53.340;-6.260;2023-03-21T07:28:59;6.45;;;1.08;;
74753;SDS011;63271;53.340;-6.260;2023-03-21T07:31:27;4.70;;;1.08;;
74753;SDS011;63271;53.340;-6.260;2023-03-21T07:33:53;7.55;;;1.25;;
74753;SDS011;63271;53.340;-6.260;2023-03-21T07:36:19;4.88;;;0.95;;
74753;SDS011;63271;53.340;-6.260;2023-03-21T07:38:45;6.30;;;1.52;;
74753;SDS011;63271;53.340;-6.260;2023-03-21T07:41:11;2.17;;;0.90;;
74753;SDS011;63271;53.340;-6.260;2023-03-21T07:43:36;5.07;;;1.13;;
74753;SDS011;63271;53.340;-6.260;2023-03-21T07:46:02;10.15;;;1.42;;
74753;SDS011;63271;53.340;-6.260;2023-03-21T07:48:28;5.60;;;1.15;;
74753;SDS011;63271;53.340;-6.260;2023-03-21T07:50:54;3.67;;;0.90;;
74753;SDS011;63271;53.340;-6.260;2023-03-21T07:53:22;8.82;;;0.90;;
74753;SDS011;63271;53.340;-6.260;2023-03-21T07:55:48;4.28;;;0.95;;
74753;SDS011;63271;53.340;-6.260;2023-03-21T07:58:15;5.13;;;0.82;;
74753;SDS011;63271;53.340;-6.260;2023-03-21T08:00:40;4.75;;;1.10;;
74753;SDS011;63271;53.340;-6.260;2023-03-21T08:03:06;3.85;;;1.35;;
74753;SDS011;63271;53.340;-6.260;2023-03-21T08:05:36;6.55;;;0.82;;
74753;SDS011;63271;53.340;-6.260;2023-03-21T08:08:02;8.93;;;1.27;;
74753;SDS011;63271;53.340;-6.260;2023-03-21T08:10:28;5.72;;;1.10;;
74753;SDS011;63271;53.340;-6.260;2023-03-21T08:12:56;3.53;;;0.90;;
74753;SDS011;63271;53.340;-6.260;2023-03-21T08:15:22;4.63;;;0.90;;
74753;SDS011;63271;53.340;-6.260;2023-03-21T08:17:50;3.72;;;0.77;;
74753;SDS011;63271;53.340;-6.260;2023-03-21T08:20:19;2.90;;;0.98;;
74753;SDS011;63271;53.340;-6.260;2023-03-21T08:22:45;3.40;;;1.00;;
74753;SDS011;63271;53.340;-6.260;2023-03-21T08:25:16;5.45;;;0.77;;
74753;SDS011;63271;53.340;-6.260;2023-03-21T08:27:43;3.20;;;0.63;;
74753;SDS011;63271;53.340;-6.260;2023-03-21T08:30:10;8.48;;;1.05;;
74753;SDS011;63271;53.340;-6.260;2023-03-21T08:32:40;7.32;;;1.27;;
74753;SDS011;63271;53.340;-6.260;2023-03-21T08:35:08;3.97;;;0.88;;
74753;SDS011;63271;53.340;-6.260;2023-03-21T08:37:38;5.00;;;1.00;;
74753;SDS011;63271;53.340;-6.260;2023-03-21T08:40:06;9.07;;;1.60;;
74753;SDS011;63271;53.340;-6.260;2023-03-21T08:42:35;9.60;;;1.70;;
74753;SDS011;63271;53.340;-6.260;2023-03-21T08:45:04;4.43;;;0.68;;
74753;SDS011;63271;53.340;-6.260;2023-03-21T08:47:31;4.05;;;1.13;;
74753;SDS011;63271;53.340;-6.260;2023-03-21T08:49:56;6.45;;;0.95;;
74753;SDS011;63271;53.340;-6.260;2023-03-21T08:52:23;5.65;;;1.10;;
74753;SDS011;63271;53.340;-6.260;2023-03-21T08:54:48;4.88;;;0.98;;
74753;SDS011;63271;53.340;-6.260;2023-03-21T08:57:14;5.38;;;1.23;;
74753;SDS011;63271;53.340;-6.260;2023-03-21T08:59:40;7.97;;;1.02;;
74753;SDS011;63271;53.340;-6.260;2023-03-21T09:02:05;11.10;;;1.52;;
74753;SDS011;63271;53.340;-6.260;2023-03-21T09:04:33;7.97;;;1.20;;
74753;SDS011;63271;53.340;-6.260;2023-03-21T09:06:59;6.70;;;1.40;;
74753;SDS011;63271;53.340;-6.260;2023-03-21T09:09:32;8.45;;;1.30;;
74753;SDS011;63271;53.340;-6.260;2023-03-21T09:11:57;9.73;;;1.48;;
74753;SDS011;63271;53.340;-6.260;2023-03-21T09:14:23;3.10;;;0.73;;
74753;SDS011;63271;53.340;-6.260;2023-03-21T09:16:48;10.23;;;1.30;;
74753;SDS011;63271;53.340;-6.260;2023-03-21T09:19:14;5.40;;;0.80;;
74753;SDS011;63271;53.340;-6.260;2023-03-21T09:21:41;7.10;;;1.25;;
74753;SDS011;63271;53.340;-6.260;2023-03-21T09:24:09;18.48;;;1.45;;
74753;SDS011;63271;53.340;-6.260;2023-03-21T09:26:36;6.10;;;1.40;;
74753;SDS011;63271;53.340;-6.260;2023-03-21T09:29:02;8.30;;;1.77;;
74753;SDS011;63271;53.340;-6.260;2023-03-21T09:31:32;10.05;;;1.10;;
74753;SDS011;63271;53.340;-6.260;2023-03-21T09:34:00;6.07;;;1.13;;
74753;SDS011;63271;53.340;-6.260;2023-03-21T09:36:28;10.65;;;1.30;;
74753;SDS011;63271;53.340;-6.260;2023-03-21T09:38:56;11.40;;;1.40;;
74753;SDS011;63271;53.340;-6.260;2023-03-21T09:49:55;7.07;;;1.08;;
74753;SDS011;63271;53.340;-6.260;2023-03-21T09:52:32;8.82;;;1.50;;
74753;SDS011;63271;53.340;-6.260;2023-03-21T09:55:13;8.88;;;1.45;;
74753;SDS011;63271;53.340;-6.260;2023-03-21T09:57:44;4.55;;;1.08;;
74753;SDS011;63271;53.340;-6.260;2023-03-21T10:00:37;8.80;;;1.15;;
74753;SDS011;63271;53.340;-6.260;2023-03-21T10:05:59;11.35;;;1.40;;
74753;SDS011;63271;53.340;-6.260;2023-03-21T10:08:32;11.93;;;1.55;;
74753;SDS011;63271;53.340;-6.260;2023-03-21T10:11:05;11.90;;;1.30;;
74753;SDS011;63271;53.340;-6.260;2023-03-21T10:13:47;4.80;;;1.08;;
74753;SDS011;63271;53.340;-6.260;2023-03-21T10:16:28;6.90;;;1.20;;
74753;SDS011;63271;53.340;-6.260;2023-03-21T10:18:56;8.80;;;1.10;;
74753;SDS011;63271;53.340;-6.260;2023-03-21T10:21:22;8.68;;;1.85;;
74753;SDS011;63271;53.340;-6.260;2023-03-21T10:23:50;8.82;;;1.70;;
74753;SDS011;63271;53.340;-6.260;2023-03-21T10:26:16;7.10;;;1.55;;
74753;SDS011;63271;53.340;-6.260;2023-03-21T10:28:43;10.65;;;1.52;;
74753;SDS011;63271;53.340;-6.260;2023-03-21T10:31:17;4.80;;;1.13;;
74753;SDS011;63271;53.340;-6.260;2023-03-21T10:33:45;7.63;;;1.30;;
74753;SDS011;63271;53.340;-6.260;2023-03-21T10:36:15;3.20;;;1.00;;
74753;SDS011;63271;53.340;-6.260;2023-03-21T10:38:45;4.60;;;1.13;;
74753;SDS011;63271;53.340;-6.260;2023-03-21T10:41:14;5.32;;;1.15;;
74753;SDS011;63271;53.340;-6.260;2023-03-21T10:43:40;2.38;;;0.60;;
74753;SDS011;63271;53.340;-6.260;2023-03-21T10:46:07;5.00;;;1.13;;
74753;SDS011;63271;53.340;-6.260;2023-03-21T10:48:36;3.22;;;0.80;;
74753;SDS011;63271;53.340;-6.260;2023-03-21T10:51:04;3.53;;;0.52;;
74753;SDS011;63271;53.340;-6.260;2023-03-21T10:53:34;2.00;;;0.70;;
74753;SDS011;63271;53.340;-6.260;2023-03-21T10:56:02;3.50;;;0.88;;
74753;SDS011;63271;53.340;-6.260;2023-03-21T10:58:34;2.58;;;0.47;;
74753;SDS011;63271;53.340;-6.260;2023-03-21T11:01:03;2.42;;;0.95;;
74753;SDS011;63271;53.340;-6.260;2023-03-21T11:03:38;3.53;;;0.75;;
74753;SDS011;63271;53.340;-6.260;2023-03-21T11:06:21;3.83;;;1.02;;
74753;SDS011;63271;53.340;-6.260;2023-03-21T11:08:54;2.50;;;0.60;;
74753;SDS011;63271;53.340;-6.260;2023-03-21T11:11:26;2.67;;;0.65;;
74753;SDS011;63271;53.340;-6.260;2023-03-21T11:13:58;3.38;;;0.93;;
74753;SDS011;63271;53.340;-6.260;2023-03-21T11:16:35;6.22;;;0.90;;
74753;SDS011;63271;53.340;-6.260;2023-03-21T11:19:11;3.05;;;0.75;;
74753;SDS011;63271;53.340;-6.260;2023-03-21T11:21:41;2.67;;;0.77;;
74753;SDS011;63271;53.340;-6.260;2023-03-21T11:24:14;6.50;;;0.77;;
74753;SDS011;63271;53.340;-6.260;2023-03-21T11:26:42;2.40;;;0.63;;
74753;SDS011;63271;53.340;-6.260;2023-03-21T11:31:45;3.17;;;0.77;;
74753;SDS011;63271;53.340;-6.260;2023-03-21T11:34:11;2.78;;;0.57;;
74753;SDS011;63271;53.340;-6.260;2023-03-21T11:36:51;2.63;;;0.55;;
74753;SDS011;63271;53.340;-6.260;2023-03-21T11:39:27;7.53;;;1.10;;
74753;SDS011;63271;53.340;-6.260;2023-03-21T11:41:56;2.00;;;0.50;;
74753;SDS011;63271;53.340;-6.260;2023-03-21T11:44:26;2.45;;;0.50;;
74753;SDS011;63271;53.340;-6.260;2023-03-21T11:46:56;3.15;;;0.60;;
74753;SDS011;63271;53.340;-6.260;2023-03-21T11:49:22;4.60;;;0.88;;
74753;SDS011;63271;53.340;-6.260;2023-03-21T11:54:33;2.30;;;0.55;;
74753;SDS011;63271;53.340;-6.260;2023-03-21T11:57:10;4.95;;;0.90;;
74753;SDS011;63271;53.340;-6.260;2023-03-21T12:00:03;8.07;;;1.38;;
74753;SDS011;63271;53.340;-6.260;2023-03-21T12:02:40;6.60;;;0.95;;
74753;SDS011;63271;53.340;-6.260;2023-03-21T12:05:25;3.03;;;0.93;;
74753;SDS011;63271;53.340;-6.260;2023-03-21T12:10:50;5.65;;;1.10;;
74753;SDS011;63271;53.340;-6.260;2023-03-21T12:16:27;6.10;;;1.60;;
74753;SDS011;63271;53.340;-6.260;2023-03-21T12:22:03;9.52;;;1.20;;
74753;SDS011;63271;53.340;-6.260;2023-03-21T12:24:32;4.03;;;0.75;;
74753;SDS011;63271;53.340;-6.260;2023-03-21T12:27:37;4.88;;;0.88;;
74753;SDS011;63271;53.340;-6.260;2023-03-21T12:41:24;5.90;;;1.48;;
74753;SDS011;63271;53.340;-6.260;2023-03-21T12:44:01;9.90;;;1.30;;
74753;SDS011;63271;53.340;-6.260;2023-03-21T12:46:38;10.35;;;1.10;;
74753;SDS011;63271;53.340;-6.260;2023-03-21T12:49:12;9.02;;;1.13;;
74753;SDS011;63271;53.340;-6.260;2023-03-21T12:51:45;8.25;;;1.00;;
74753;SDS011;63271;53.340;-6.260;2023-03-21T12:54:24;3.75;;;1.23;;
74753;SDS011;63271;53.340;-6.260;2023-03-21T12:57:22;4.13;;;0.82;;
74753;SDS011;63271;53.340;-6.260;2023-03-21T13:10:52;4.90;;;0.93;;
74753;SDS011;63271;53.340;-6.260;2023-03-21T13:27:26;9.05;;;1.42;;
74753;SDS011;63271;53.340;-6.260;2023-03-21T13:30:03;7.10;;;1.15;;
74753;SDS011;63271;53.340;-6.260;2023-03-21T13:32:41;8.55;;;1.38;;
74753;SDS011;63271;53.340;-6.260;2023-03-21T13:35:18;3.55;;;1.02;;
74753;SDS011;63271;53.340;-6.260;2023-03-21T13:37:55;4.95;;;0.90;;
74753;SDS011;63271;53.340;-6.260;2023-03-21T13:40:44;9.75;;;1.88;;
74753;SDS011;63271;53.340;-6.260;2023-03-21T14:04:28;17.70;;;2.22;;
74753;SDS011;63271;53.340;-6.260;2023-03-21T14:09:29;9.57;;;1.50;;
74753;SDS011;63271;53.340;-6.260;2023-03-21T14:12:17;11.20;;;1.83;;
74753;SDS011;63271;53.340;-6.260;2023-03-21T14:14:48;12.38;;;1.98;;
74753;SDS011;63271;53.340;-6.260;2023-03-21T14:17:22;13.40;;;1.92;;
74753;SDS011;63271;53.340;-6.260;2023-03-21T14:19:57;14.32;;;2.00;;
74753;SDS011;63271;53.340;-6.260;2023-03-21T14:22:36;16.17;;;2.30;;
74753;SDS011;63271;53.340;-6.260;2023-03-21T14:25:06;15.90;;;2.60;;
74753;SDS011;63271;53.340;-6.260;2023-03-21T14:27:37;13.02;;;2.15;;
74753;SDS011;63271;53.340;-6.260;2023-03-21T14:30:03;13.57;;;2.42;;
74753;SDS011;63271;53.340;-6.260;2023-03-21T14:32:29;15.57;;;2.30;;
74753;SDS011;63271;53.340;-6.260;2023-03-21T14:34:55;15.18;;;1.98;;
74753;SDS011;63271;53.340;-6.260;2023-03-21T14:37:31;11.07;;;1.55;;
74753;SDS011;63271;53.340;-6.260;2023-03-21T14:40:17;12.07;;;2.13;;
74753;SDS011;63271;53.340;-6.260;2023-03-21T14:42:53;11.48;;;3.42;;
74753;SDS011;63271;53.340;-6.260;2023-03-21T14:45:20;9.95;;;1.90;;
74753;SDS011;63271;53.340;-6.260;2023-03-21T14:48:12;20.30;;;2.30;;
74753;SDS011;63271;53.340;-6.260;2023-03-21T14:53:20;13.10;;;2.33;;
74753;SDS011;63271;53.340;-6.260;2023-03-21T14:56:28;14.38;;;2.25;;
74753;SDS011;63271;53.340;-6.260;2023-03-21T14:58:37;11.15;;;1.70;;
74753;SDS011;63271;53.340;-6.260;2023-03-21T15:01:04;11.68;;;1.73;;
74753;SDS011;63271;53.340;-6.260;2023-03-21T15:03:31;9.40;;;1.33;;
74753;SDS011;63271;53.340;-6.260;2023-03-21T15:05:57;10.57;;;1.60;;
74753;SDS011;63271;53.340;-6.260;2023-03-21T15:08:24;12.90;;;1.45;;
74753;SDS011;63271;53.340;-6.260;2023-03-21T15:13:21;8.13;;;1.55;;
74753;SDS011;63271;53.340;-6.260;2023-03-21T15:15:50;10.38;;;2.72;;
74753;SDS011;63271;53.340;-6.260;2023-03-21T15:18:23;11.27;;;1.38;;
74753;SDS011;63271;53.340;-6.260;2023-03-21T15:20:53;14.23;;;2.00;;
74753;SDS011;63271;53.340;-6.260;2023-03-21T15:23:31;6.22;;;1.23;;
74753;SDS011;63271;53.340;-6.260;2023-03-21T15:26:16;7.65;;;1.25;;
74753;SDS011;63271;53.340;-6.260;2023-03-21T15:28:44;5.30;;;1.02;;
74753;SDS011;63271;53.340;-6.260;2023-03-21T15:31:20;5.47;;;0.85;;
74753;SDS011;63271;53.340;-6.260;2023-03-21T15:33:47;8.70;;;1.65;;
74753;SDS011;63271;53.340;-6.260;2023-03-21T15:36:17;13.32;;;1.10;;
74753;SDS011;63271;53.340;-6.260;2023-03-21T15:38:46;7.95;;;1.10;;
74753;SDS011;63271;53.340;-6.260;2023-03-21T15:43:44;4.55;;;1.00;;
74753;SDS011;63271;53.340;-6.260;2023-03-21T15:46:30;4.20;;;1.10;;
74753;SDS011;63271;53.340;-6.260;2023-03-21T15:49:09;6.05;;;1.20;;
74753;SDS011;63271;53.340;-6.260;2023-03-21T15:54:20;6.47;;;0.93;;
74753;SDS011;63271;53.340;-6.260;2023-03-21T15:56:51;7.15;;;1.40;;
74753;SDS011;63271;53.340;-6.260;2023-03-21T15:59:18;4.82;;;1.25;;
74753;SDS011;63271;53.340;-6.260;2023-03-21T16:01:48;2.17;;;1.02;;
74753;SDS011;63271;53.340;-6.260;2023-03-21T16:04:14;8.07;;;1.73;;
74753;SDS011;63271;53.340;-6.260;2023-03-21T16:07:11;5.28;;;1.50;;
74753;SDS011;63271;53.340;-6.260;2023-03-21T16:09:44;7.50;;;1.83;;
74753;SDS011;63271;53.340;-6.260;2023-03-21T16:12:15;7.18;;;1.95;;
74753;SDS011;63271;53.340;-6.260;2023-03-21T16:14:42;4.85;;;1.30;;
74753;SDS011;63271;53.340;-6.260;2023-03-21T16:17:30;4.20;;;1.27;;
74753;SDS011;63271;53.340;-6.260;2023-03-21T16:19:58;2.22;;;1.00;;
74753;SDS011;63271;53.340;-6.260;2023-03-21T16:22:24;4.53;;;1.45;;
74753;SDS011;63271;53.340;-6.260;2023-03-21T16:24:50;9.23;;;1.73;;
74753;SDS011;63271;53.340;-6.260;2023-03-21T16:27:16;6.43;;;1.45;;
74753;SDS011;63271;53.340;-6.260;2023-03-21T16:29:43;13.60;;;3.00;;
74753;SDS011;63271;53.340;-6.260;2023-03-21T16:32:14;4.60;;;1.20;;
74753;SDS011;63271;53.340;-6.260;2023-03-21T16:34:41;3.03;;;1.33;;
74753;SDS011;63271;53.340;-6.260;2023-03-21T16:37:12;3.92;;;1.40;;
74753;SDS011;63271;53.340;-6.260;2023-03-21T16:42:11;4.47;;;1.17;;
74753;SDS011;63271;53.340;-6.260;2023-03-21T16:44:37;7.90;;;1.10;;
74753;SDS011;63271;53.340;-6.260;2023-03-21T16:47:05;3.95;;;1.35;;
74753;SDS011;63271;53.340;-6.260;2023-03-21T16:49:39;6.70;;;1.50;;
74753;SDS011;63271;53.340;-6.260;2023-03-21T16:52:05;8.52;;;1.73;;
74753;SDS011;63271;53.340;-6.260;2023-03-21T16:54:32;7.60;;;1.65;;
74753;SDS011;63271;53.340;-6.260;2023-03-21T16:56:58;5.68;;;1.88;;
74753;SDS011;63271;53.340;-6.260;2023-03-21T16:59:23;7.60;;;2.38;;
74753;SDS011;63271;53.340;-6.260;2023-03-21T17:01:49;3.60;;;1.45;;
74753;SDS011;63271;53.340;-6.260;2023-03-21T17:04:17;5.88;;;1.60;;
74753;SDS011;63271;53.340;-6.260;2023-03-21T17:06:47;5.53;;;1.10;;
74753;SDS011;63271;53.340;-6.260;2023-03-21T17:11:39;3.38;;;1.20;;
74753;SDS011;63271;53.340;-6.260;2023-03-21T17:14:08;9.48;;;2.08;;
74753;SDS011;63271;53.340;-6.260;2023-03-21T17:16:35;11.20;;;1.45;;
74753;SDS011;63271;53.340;-6.260;2023-03-21T17:19:08;9.23;;;3.20;;
74753;SDS011;63271;53.340;-6.260;2023-03-21T17:21:36;3.15;;;1.27;;
74753;SDS011;63271;53.340;-6.260;2023-03-21T17:24:01;5.22;;;0.95;;
74753;SDS011;63271;53.340;-6.260;2023-03-21T17:26:27;4.38;;;1.42;;
74753;SDS011;63271;53.340;-6.260;2023-03-21T17:28:54;4.20;;;1.30;;
74753;SDS011;63271;53.340;-6.260;2023-03-21T17:31:26;6.60;;;1.98;;
74753;SDS011;63271;53.340;-6.260;2023-03-21T17:33:52;5.45;;;1.30;;
74753;SDS011;63271;53.340;-6.260;2023-03-21T17:36:22;5.07;;;1.95;;
74753;SDS011;63271;53.340;-6.260;2023-03-21T17:38:58;5.07;;;1.30;;
74753;SDS011;63271;53.340;-6.260;2023-03-21T17:41:26;2.17;;;1.00;;
74753;SDS011;63271;53.340;-6.260;2023-03-21T17:43:54;4.00;;;1.35;;
74753;SDS011;63271;53.340;-6.260;2023-03-21T17:46:21;2.50;;;0.93;;
74753;SDS011;63271;53.340;-6.260;2023-03-21T17:48:50;3.15;;;1.10;;
74753;SDS011;63271;53.340;-6.260;2023-03-21T17:51:16;3.70;;;0.90;;
74753;SDS011;63271;53.340;-6.260;2023-03-21T17:53:42;4.43;;;1.02;;
74753;SDS011;63271;53.340;-6.260;2023-03-21T17:56:25;2.60;;;0.98;;
74753;SDS011;63271;53.340;-6.260;2023-03-21T17:58:59;1.75;;;0.90;;
74753;SDS011;63271;53.340;-6.260;2023-03-21T18:01:28;2.03;;;0.93;;
74753;SDS011;63271;53.340;-6.260;2023-03-21T18:03:54;1.63;;;0.85;;
74753;SDS011;63271;53.340;-6.260;2023-03-21T18:06:21;1.80;;;0.57;;
74753;SDS011;63271;53.340;-6.260;2023-03-21T18:08:50;1.33;;;0.80;;
74753;SDS011;63271;53.340;-6.260;2023-03-21T18:11:16;1.23;;;0.80;;
74753;SDS011;63271;53.340;-6.260;2023-03-21T18:13:42;2.25;;;1.00;;
74753;SDS011;63271;53.340;-6.260;2023-03-21T18:16:12;1.90;;;1.00;;
74753;SDS011;63271;53.340;-6.260;2023-03-21T18:18:40;0.68;;;0.68;;
74753;SDS011;63271;53.340;-6.260;2023-03-21T18:21:05;4.90;;;0.80;;
74753;SDS011;63271;53.340;-6.260;2023-03-21T18:23:34;5.18;;;1.00;;
74753;SDS011;63271;53.340;-6.260;2023-03-21T18:26:01;3.83;;;1.45;;
74753;SDS011;63271;53.340;-6.260;2023-03-21T18:28:26;1.85;;;0.80;;
74753;SDS011;63271;53.340;-6.260;2023-03-21T18:30:52;1.70;;;0.77;;
74753;SDS011;63271;53.340;-6.260;2023-03-21T18:33:20;0.60;;;0.60;;
74753;SDS011;63271;53.340;-6.260;2023-03-21T18:35:46;1.05;;;0.60;;
74753;SDS011;63271;53.340;-6.260;2023-03-21T18:38:14;2.83;;;1.30;;
74753;SDS011;63271;53.340;-6.260;2023-03-21T18:40:39;0.68;;;0.63;;
74753;SDS011;63271;53.340;-6.260;2023-03-21T18:43:05;0.77;;;0.65;;
74753;SDS011;63271;53.340;-6.260;2023-03-21T18:45:32;1.45;;;1.00;;
74753;SDS011;63271;53.340;-6.260;2023-03-21T18:47:58;2.53;;;1.25;;
74753;SDS011;63271;53.340;-6.260;2023-03-21T18:50:23;1.70;;;0.90;;
74753;SDS011;63271;53.340;-6.260;2023-03-21T18:52:51;0.70;;;0.50;;
74753;SDS011;63271;53.340;-6.260;2023-03-21T18:55:16;1.02;;;0.50;;
74753;SDS011;63271;53.340;-6.260;2023-03-21T18:57:42;2.25;;;0.65;;
74753;SDS011;63271;53.340;-6.260;2023-03-21T19:00:11;1.00;;;0.60;;
74753;SDS011;63271;53.340;-6.260;2023-03-21T19:02:46;0.63;;;0.43;;
74753;SDS011;63271;53.340;-6.260;2023-03-21T19:05:13;4.18;;;0.90;;
74753;SDS011;63271;53.340;-6.260;2023-03-21T19:07:40;1.20;;;0.68;;
74753;SDS011;63271;53.340;-6.260;2023-03-21T19:10:07;1.48;;;0.75;;
74753;SDS011;63271;53.340;-6.260;2023-03-21T19:12:38;3.10;;;1.00;;
74753;SDS011;63271;53.340;-6.260;2023-03-21T19:15:10;1.55;;;0.47;;
74753;SDS011;63271;53.340;-6.260;2023-03-21T19:17:41;2.42;;;0.52;;
74753;SDS011;63271;53.340;-6.260;2023-03-21T19:20:07;0.70;;;0.40;;
74753;SDS011;63271;53.340;-6.260;2023-03-21T19:22:33;2.38;;;0.65;;
74753;SDS011;63271;53.340;-6.260;2023-03-21T19:24:59;1.02;;;0.63;;
74753;SDS011;63271;53.340;-6.260;2023-03-21T19:27:29;1.08;;;0.40;;
74753;SDS011;63271;53.340;-6.260;2023-03-21T19:29:57;0.47;;;0.43;;
74753;SDS011;63271;53.340;-6.260;2023-03-21T19:32:25;1.75;;;0.60;;
74753;SDS011;63271;53.340;-6.260;2023-03-21T19:34:56;1.40;;;0.80;;
74753;SDS011;63271;53.340;-6.260;2023-03-21T19:37:21;1.42;;;0.40;;
74753;SDS011;63271;53.340;-6.260;2023-03-21T19:39:47;1.38;;;0.47;;
74753;SDS011;63271;53.340;-6.260;2023-03-21T19:42:12;4.10;;;0.45;;
74753;SDS011;63271;53.340;-6.260;2023-03-21T19:44:38;1.02;;;0.57;;
74753;SDS011;63271;53.340;-6.260;2023-03-21T19:47:05;0.50;;;0.45;;
74753;SDS011;63271;53.340;-6.260;2023-03-21T19:49:33;3.97;;;0.70;;
74753;SDS011;63271;53.340;-6.260;2023-03-21T19:51:59;1.23;;;0.73;;
74753;SDS011;63271;53.340;-6.260;2023-03-21T19:54:25;3.65;;;0.75;;
74753;SDS011;63271;53.340;-6.260;2023-03-21T19:56:50;1.48;;;0.70;;
74753;SDS011;63271;53.340;-6.260;2023-03-21T19:59:18;0.88;;;0.60;;
